createdAt,value
2023-08-04T00:01:34.633Z,100201.09
2023-08-04T00:04:01.195Z,100198.84
2023-08-04T00:06:27.694Z,100204.66
2023-08-04T00:08:54.063Z,100200.31
2023-08-04T00:11:20.403Z,100205.44
2023-08-04T00:13:46.764Z,100203.34
2023-08-04T00:16:13.220Z,100210.91
2023-08-04T00:18:39.632Z,100217.00
2023-08-04T00:21:05.982Z,100215.94
2023-08-04T00:23:32.394Z,100211.13
2023-08-04T00:25:58.722Z,100214.50
2023-08-04T00:28:25.263Z,100214.44
2023-08-04T00:30:51.669Z,100218.75
2023-08-04T00:33:18.058Z,100223.16
2023-08-04T00:35:44.594Z,100227.72
2023-08-04T00:38:11.005Z,100226.44
2023-08-04T00:40:37.705Z,100225.53
2023-08-04T00:43:04.097Z,100230.66
2023-08-04T00:45:32.174Z,100227.03
2023-08-04T00:47:59.186Z,100230.22
2023-08-04T00:50:26.580Z,100239.16
2023-08-04T00:52:53.203Z,100240.72
2023-08-04T00:55:19.805Z,100247.06
2023-08-04T00:57:47.847Z,100249.13
2023-08-04T01:00:15.057Z,100254.00
2023-08-04T01:02:42.003Z,100255.50
2023-08-04T01:05:08.854Z,100260.69
2023-08-04T01:07:51.558Z,100266.72
2023-08-04T01:10:20.369Z,100260.34
2023-08-04T01:12:56.574Z,100268.13
2023-08-04T01:15:25.493Z,100266.38
2023-08-04T01:17:51.888Z,100268.00
2023-08-04T01:20:18.378Z,100279.88
2023-08-04T01:22:44.817Z,100285.69
2023-08-04T01:25:11.177Z,100290.56
2023-08-04T01:27:45.550Z,100288.91
2023-08-04T01:30:16.560Z,100298.72
2023-08-04T01:32:43.258Z,100300.13
2023-08-04T01:35:10.762Z,100301.22
2023-08-04T01:37:37.181Z,100305.94
2023-08-04T01:40:03.859Z,100301.72
2023-08-04T01:42:30.259Z,100304.84
2023-08-04T01:44:56.605Z,100309.47
2023-08-04T01:47:22.956Z,100311.66
2023-08-04T01:49:49.341Z,100309.59
2023-08-04T01:52:15.727Z,100310.25
2023-08-04T01:54:42.219Z,100314.28
2023-08-04T01:57:08.600Z,100307.22
2023-08-04T01:59:34.961Z,100313.00
2023-08-04T02:02:01.295Z,100315.53
2023-08-04T02:04:27.679Z,100316.47
2023-08-04T02:06:54.032Z,100315.63
2023-08-04T02:09:20.405Z,100321.50
2023-08-04T02:11:47.111Z,100318.88
2023-08-04T02:14:13.992Z,100325.88
2023-08-04T02:16:40.363Z,100320.53
2023-08-04T02:19:08.914Z,100324.63
2023-08-04T02:21:35.532Z,100328.13
2023-08-04T02:24:02.844Z,100330.09
2023-08-04T02:26:29.459Z,100332.41
2023-08-04T02:28:56.459Z,100339.56
2023-08-04T02:31:24.848Z,100342.50
2023-08-04T02:33:51.789Z,100346.56
2023-08-04T02:36:18.341Z,100347.47
2023-08-04T02:38:44.735Z,100349.81
2023-08-04T02:41:11.805Z,100353.88
2023-08-04T02:43:38.295Z,100355.03
2023-08-04T02:46:04.909Z,100354.91
2023-08-04T02:48:32.326Z,100360.94
2023-08-04T02:51:03.650Z,100360.00
2023-08-04T02:53:31.683Z,100363.47
2023-08-04T02:55:58.237Z,100361.84
2023-08-04T02:58:25.675Z,100358.88
2023-08-04T03:00:52.331Z,100364.97
2023-08-04T03:03:19.569Z,100360.53
2023-08-04T03:05:47.094Z,100362.56
2023-08-04T03:08:13.664Z,100368.97
2023-08-04T03:10:42.643Z,100379.31
2023-08-04T03:13:12.098Z,100372.50
2023-08-04T03:15:38.567Z,100375.00
2023-08-04T03:18:04.939Z,100374.78
2023-08-04T03:20:38.058Z,100384.72
2023-08-04T03:23:05.231Z,100389.41
2023-08-04T03:25:32.166Z,100387.38
2023-08-04T03:27:58.507Z,100391.53
2023-08-04T03:30:24.857Z,100395.38
2023-08-04T03:32:51.291Z,100404.00
2023-08-04T03:35:17.681Z,100409.28
2023-08-04T03:37:44.041Z,100417.97
2023-08-04T03:40:10.969Z,100416.19
2023-08-04T03:42:39.137Z,100427.00
2023-08-04T03:45:08.770Z,100430.44
2023-08-04T03:47:36.087Z,100429.09
2023-08-04T03:50:03.678Z,100423.34
2023-08-04T03:52:30.109Z,100431.94
2023-08-04T03:54:56.567Z,100427.84
2023-08-04T03:57:22.972Z,100436.22
2023-08-04T03:59:49.762Z,100442.75
2023-08-04T04:02:16.127Z,100444.91
2023-08-04T04:04:42.501Z,100442.50
2023-08-04T04:07:08.867Z,100435.13
2023-08-04T04:09:35.222Z,100443.06
2023-08-04T04:12:01.724Z,100436.75
2023-08-04T04:14:28.082Z,100438.91
2023-08-04T04:16:54.432Z,100452.50
2023-08-04T04:19:20.821Z,100443.31
2023-08-04T04:21:47.328Z,100449.72
2023-08-04T04:24:13.968Z,100453.91
2023-08-04T04:26:40.331Z,100456.13
2023-08-04T04:29:06.695Z,100454.72
2023-08-04T04:31:33.094Z,100455.53
2023-08-04T04:33:59.449Z,100451.59
2023-08-04T04:36:25.812Z,100448.81
2023-08-04T04:38:52.180Z,100454.34
2023-08-04T04:41:18.529Z,100462.19
2023-08-04T04:43:44.879Z,100458.84
2023-08-04T04:46:11.600Z,100464.78
2023-08-04T04:48:38.011Z,100456.56
2023-08-04T04:51:04.366Z,100466.44
2023-08-04T04:53:30.766Z,100469.88
2023-08-04T04:55:57.572Z,100465.25
2023-08-04T04:58:23.924Z,100463.94
2023-08-04T05:00:50.348Z,100470.81
2023-08-04T05:03:16.750Z,100474.72
2023-08-04T05:05:45.029Z,100472.28
2023-08-04T05:08:11.375Z,100476.88
2023-08-04T05:10:37.823Z,100480.22
2023-08-04T05:13:04.184Z,100489.06
2023-08-04T05:15:30.514Z,100479.09
2023-08-04T05:17:56.912Z,100488.31
2023-08-04T05:20:23.461Z,100485.97
2023-08-04T05:22:50.468Z,100487.88
2023-08-04T05:25:16.932Z,100484.50
2023-08-04T05:27:43.277Z,100490.81
2023-08-04T05:30:10.419Z,100481.25
2023-08-04T05:32:36.979Z,100489.13
2023-08-04T05:35:03.417Z,100496.56
2023-08-04T05:37:29.777Z,100489.09
2023-08-04T05:39:56.150Z,100497.25
2023-08-04T05:42:22.514Z,100503.06
2023-08-04T05:44:48.860Z,100504.09
2023-08-04T05:47:15.290Z,100508.88
2023-08-04T05:49:41.632Z,100509.44
2023-08-04T05:52:08.200Z,100516.09
2023-08-04T05:54:34.575Z,100515.75
2023-08-04T05:57:00.929Z,100516.25
2023-08-04T05:59:27.274Z,100520.91
2023-08-04T06:01:54.389Z,100527.97
2023-08-04T06:04:22.416Z,100518.59
2023-08-04T06:06:49.160Z,100519.28
2023-08-04T06:09:15.608Z,100511.84
2023-08-04T06:11:42.014Z,100518.00
2023-08-04T06:14:08.426Z,100526.94
2023-08-04T06:16:34.902Z,100519.91
2023-08-04T06:19:01.316Z,100530.19
2023-08-04T06:21:29.500Z,100524.66
2023-08-04T06:23:55.869Z,100532.22
2023-08-04T06:26:24.198Z,100536.38
2023-08-04T06:28:50.935Z,100536.38
2023-08-04T06:31:17.416Z,100532.84
2023-08-04T06:33:44.627Z,100536.75
2023-08-04T06:36:11.022Z,100547.44
2023-08-04T06:38:37.376Z,100544.31
2023-08-04T06:41:03.750Z,100553.47
2023-08-04T06:43:30.122Z,100552.69
2023-08-04T06:45:56.492Z,100568.22
2023-08-04T06:48:25.190Z,100565.00
2023-08-04T06:50:52.732Z,100570.75
2023-08-04T06:53:19.067Z,100575.84
2023-08-04T06:55:47.328Z,100579.63
2023-08-04T06:58:15.021Z,100579.47
2023-08-04T07:00:41.410Z,100584.09
2023-08-04T07:03:09.460Z,100590.66
2023-08-04T07:05:35.987Z,100580.59
2023-08-04T07:08:02.693Z,100597.13
2023-08-04T07:10:29.045Z,100599.56
2023-08-04T07:12:55.390Z,100599.84
2023-08-04T07:15:21.787Z,100606.94
2023-08-04T07:17:48.232Z,100605.97
2023-08-04T07:20:15.127Z,100610.78
2023-08-04T07:22:41.696Z,100621.63
2023-08-04T07:25:08.504Z,100610.28
2023-08-04T07:27:34.924Z,100618.97
2023-08-04T07:30:01.387Z,100610.44
2023-08-04T07:32:27.836Z,100618.88
2023-08-04T07:34:54.208Z,100612.44
2023-08-04T07:37:20.585Z,100613.78
2023-08-04T07:39:46.955Z,100619.22
2023-08-04T07:42:13.331Z,100624.41
2023-08-04T07:44:39.666Z,100623.38
2023-08-04T07:47:06.030Z,100616.81
2023-08-04T07:49:32.405Z,100622.28
2023-08-04T07:51:58.774Z,100632.06
2023-08-04T07:54:25.367Z,100631.53
2023-08-04T07:56:51.781Z,100623.78
2023-08-04T07:59:18.168Z,100628.84
2023-08-04T08:01:44.547Z,100625.94
2023-08-04T08:04:13.282Z,100632.38
2023-08-04T08:06:41.585Z,100618.19
2023-08-04T08:09:08.649Z,100626.00
2023-08-04T08:11:35.116Z,100627.84
2023-08-04T08:14:01.506Z,100633.84
2023-08-04T08:16:27.890Z,100637.97
2023-08-04T08:18:54.279Z,100643.63
2023-08-04T08:21:20.616Z,100642.44
2023-08-04T08:23:47.252Z,100640.41
2023-08-04T08:26:13.642Z,100639.88
2023-08-04T08:28:40.036Z,100643.34
2023-08-04T08:31:06.542Z,100646.47
2023-08-04T08:33:32.923Z,100650.69
2023-08-04T08:36:00.040Z,100649.22
2023-08-04T08:38:26.497Z,100663.00
2023-08-04T08:40:52.881Z,100653.75
2023-08-04T08:43:19.283Z,100659.53
2023-08-04T08:45:45.958Z,100650.94
2023-08-04T08:48:12.901Z,100656.16
2023-08-04T08:50:40.685Z,100658.94
2023-08-04T08:53:15.749Z,100662.00
2023-08-04T08:55:42.620Z,100670.69
2023-08-04T08:58:12.292Z,100657.97
2023-08-04T09:00:38.704Z,100657.69
2023-08-04T09:03:06.200Z,100672.03
2023-08-04T09:05:33.369Z,100673.72
2023-08-04T09:07:59.770Z,100666.66
2023-08-04T09:10:26.238Z,100667.47
2023-08-04T09:12:52.985Z,100672.47
2023-08-04T09:15:19.938Z,100668.66
2023-08-04T09:17:46.788Z,100677.84
2023-08-04T09:20:28.266Z,100680.00
2023-08-04T09:22:54.902Z,100687.38
2023-08-04T09:25:21.446Z,100683.41
2023-08-04T09:27:51.068Z,100687.41
2023-08-04T09:30:18.252Z,100691.28
2023-08-04T09:32:46.478Z,100691.63
2023-08-04T09:35:13.835Z,100692.50
2023-08-04T09:37:40.931Z,100691.44
2023-08-04T09:40:18.705Z,100693.25
2023-08-04T09:42:45.404Z,100693.25
2023-08-04T09:45:16.485Z,100691.88
2023-08-04T09:47:51.353Z,100698.53
2023-08-04T09:50:19.373Z,100697.16
2023-08-04T09:52:46.131Z,100705.16
2023-08-04T09:55:12.678Z,100701.31
2023-08-04T09:57:40.102Z,100696.69
2023-08-04T10:00:08.902Z,100697.25
2023-08-04T10:02:35.653Z,100704.25
2023-08-04T10:05:03.251Z,100700.03
2023-08-04T10:07:30.425Z,100692.38
2023-08-04T10:09:56.809Z,100699.00
2023-08-04T10:12:23.739Z,100705.88
2023-08-04T10:14:50.117Z,100714.38
2023-08-04T10:17:16.522Z,100717.44
2023-08-04T10:19:43.023Z,100714.63
2023-08-04T10:22:10.606Z,100722.13
2023-08-04T10:24:38.216Z,100727.19
2023-08-04T10:27:15.937Z,100729.47
2023-08-04T10:29:42.779Z,100725.78
2023-08-04T10:32:10.265Z,100724.03
2023-08-04T10:34:38.469Z,100725.00
2023-08-04T10:37:14.172Z,100728.91
2023-08-04T10:39:56.943Z,100729.25
2023-08-04T10:42:28.269Z,100735.06
2023-08-04T10:45:05.888Z,100731.16
2023-08-04T10:47:32.376Z,100735.16
2023-08-04T10:50:00.017Z,100746.03
2023-08-04T10:52:27.439Z,100743.06
2023-08-04T10:54:54.290Z,100740.72
2023-08-04T10:57:22.719Z,100732.91
2023-08-04T10:59:50.037Z,100735.13
2023-08-04T11:02:23.776Z,100735.56
2023-08-04T11:04:51.842Z,100744.50
2023-08-04T11:07:20.298Z,100746.56
2023-08-04T11:09:47.246Z,100746.63
2023-08-04T11:12:15.292Z,100736.63
2023-08-04T11:14:42.306Z,100739.94
2023-08-04T11:17:20.000Z,100746.06
2023-08-04T11:19:48.394Z,100758.00
2023-08-04T11:22:16.931Z,100756.06
2023-08-04T11:24:44.027Z,100755.41
2023-08-04T11:27:12.541Z,100758.56
2023-08-04T11:29:39.346Z,100760.16
2023-08-04T11:32:21.798Z,100758.00
2023-08-04T11:34:52.297Z,100762.25
2023-08-04T11:37:20.871Z,100755.97
2023-08-04T11:39:47.364Z,100763.38
2023-08-04T11:42:14.524Z,100752.50
2023-08-04T11:44:42.032Z,100757.91
2023-08-04T11:47:10.010Z,100754.03
2023-08-04T11:49:37.417Z,100749.28
2023-08-04T11:52:11.605Z,100753.88
2023-08-04T11:54:52.426Z,100759.06
2023-08-04T11:57:19.369Z,100760.25
2023-08-04T11:59:52.923Z,100755.97
2023-08-04T12:02:19.993Z,100761.19
2023-08-04T12:04:46.967Z,100756.78
2023-08-04T12:07:13.730Z,100761.78
2023-08-04T12:09:40.206Z,100759.16
2023-08-04T12:12:07.782Z,100768.63
2023-08-04T12:14:47.719Z,100760.13
2023-08-04T12:17:35.957Z,100771.50
2023-08-04T12:20:02.547Z,100768.78
2023-08-04T12:22:28.954Z,100763.72
2023-08-04T12:25:03.881Z,100765.38
2023-08-04T12:27:31.038Z,100775.91
2023-08-04T12:29:57.667Z,100762.75
2023-08-04T12:32:24.250Z,100771.50
2023-08-04T12:34:50.788Z,100771.75
2023-08-04T12:37:17.291Z,100775.72
2023-08-04T12:39:45.873Z,100780.09
2023-08-04T12:42:12.290Z,100778.22
2023-08-04T12:44:38.716Z,100781.75
2023-08-04T12:47:05.649Z,100788.44
2023-08-04T12:49:32.060Z,100789.81
2023-08-04T12:51:58.438Z,100787.47
2023-08-04T12:54:24.880Z,100802.06
2023-08-04T12:56:51.257Z,100798.88
2023-08-04T12:59:17.611Z,100790.94
2023-08-04T13:01:44.148Z,100798.25
2023-08-04T13:04:11.206Z,100796.72
2023-08-04T13:06:40.601Z,100801.53
2023-08-04T13:09:06.982Z,100805.84
2023-08-04T13:11:33.332Z,100807.50
2023-08-04T13:13:59.731Z,100807.47
2023-08-04T13:16:26.153Z,100807.75
2023-08-04T13:18:53.533Z,100811.91
2023-08-04T13:21:19.864Z,100809.03
2023-08-04T13:23:47.974Z,100811.31
2023-08-04T13:26:14.522Z,100809.09
2023-08-04T13:28:43.101Z,100814.50
2023-08-04T13:31:13.176Z,100810.56
2023-08-04T13:33:39.796Z,100804.81
2023-08-04T13:36:06.145Z,100817.66
2023-08-04T13:38:32.486Z,100822.59
2023-08-04T13:40:59.156Z,100821.75
2023-08-04T13:43:25.626Z,100834.75
2023-08-04T13:45:51.959Z,100827.63
2023-08-04T13:48:18.435Z,100834.56
2023-08-04T13:50:45.274Z,100836.53
2023-08-04T13:53:11.668Z,100834.06
2023-08-04T13:55:39.109Z,100840.00
2023-08-04T13:58:05.543Z,100840.78
2023-08-04T14:00:31.918Z,100841.28
2023-08-04T14:02:58.317Z,100854.50
2023-08-04T14:05:24.797Z,100852.22
2023-08-04T14:07:51.773Z,100856.41
2023-08-04T14:10:18.283Z,100855.53
2023-08-04T14:12:44.630Z,100864.09
2023-08-04T14:15:10.969Z,100867.66
2023-08-04T14:17:37.419Z,100861.72
2023-08-04T14:20:06.251Z,100857.03
2023-08-04T14:22:33.190Z,100869.31
2023-08-04T14:24:59.625Z,100868.19
2023-08-04T14:27:31.214Z,100863.88
2023-08-04T14:29:58.263Z,100875.41
2023-08-04T14:32:24.879Z,100879.00
2023-08-04T14:34:51.445Z,100877.16
2023-08-04T14:37:17.896Z,100888.81
2023-08-04T14:39:44.365Z,100880.94
2023-08-04T14:42:10.727Z,100883.22
2023-08-04T14:44:37.304Z,100892.56
2023-08-04T14:47:04.047Z,100906.28
2023-08-04T14:49:30.492Z,100912.25
2023-08-04T14:51:57.214Z,100918.44
2023-08-04T14:54:23.642Z,100902.03
2023-08-04T14:56:51.367Z,100909.38
2023-08-04T14:59:17.841Z,100910.41
2023-08-04T15:01:44.321Z,100907.47
2023-08-04T15:04:10.791Z,100919.00
2023-08-04T15:06:37.189Z,100917.34
2023-08-04T15:09:03.601Z,100931.66
2023-08-04T15:11:30.019Z,100916.97
2023-08-04T15:13:56.441Z,100927.19
2023-08-04T15:16:22.813Z,100931.03
2023-08-04T15:18:49.196Z,100928.16
2023-08-04T15:21:15.570Z,100924.75
2023-08-04T15:23:41.967Z,100926.69
2023-08-04T15:26:08.484Z,100928.03
2023-08-04T15:28:34.900Z,100937.31
2023-08-04T15:31:06.101Z,100937.50
2023-08-04T15:33:36.465Z,100931.91
2023-08-04T15:36:05.834Z,100935.72
2023-08-04T15:38:32.268Z,100928.41
2023-08-04T15:41:03.256Z,100932.25
2023-08-04T15:43:29.736Z,100935.31
2023-08-04T15:45:56.319Z,100934.78
2023-08-04T15:48:23.454Z,100930.91
2023-08-04T15:50:50.006Z,100929.84
2023-08-04T15:53:16.851Z,100919.00
2023-08-04T15:55:43.212Z,100915.34
2023-08-04T15:58:09.678Z,100919.09
2023-08-04T16:00:36.185Z,100917.94
2023-08-04T16:03:02.990Z,100919.38
2023-08-04T16:05:29.472Z,100919.78
2023-08-04T16:07:55.793Z,100917.78
2023-08-04T16:10:23.488Z,100926.03
2023-08-04T16:12:49.851Z,100925.56
2023-08-04T16:15:16.614Z,100930.66
2023-08-04T16:17:43.064Z,100919.63
2023-08-04T16:20:09.614Z,100920.75
2023-08-04T16:22:36.116Z,100926.13
2023-08-04T16:25:02.495Z,100926.44
2023-08-04T16:27:28.837Z,100944.94
2023-08-04T16:29:55.224Z,100948.66
2023-08-04T16:32:21.625Z,100956.72
2023-08-04T16:34:48.015Z,100958.38
2023-08-04T16:37:14.390Z,100962.50
2023-08-04T16:39:40.784Z,100955.38
2023-08-04T16:42:07.382Z,100961.28
2023-08-04T16:44:33.781Z,100966.38
2023-08-04T16:47:00.153Z,100965.91
2023-08-04T16:49:26.633Z,100970.75
2023-08-04T16:51:52.995Z,100977.75
2023-08-04T16:54:20.243Z,100979.38
2023-08-04T16:56:47.024Z,100968.22
2023-08-04T16:59:13.592Z,100976.56
2023-08-04T17:01:40.137Z,100981.34
2023-08-04T17:04:07.130Z,100993.28
2023-08-04T17:06:33.642Z,100992.94
2023-08-04T17:08:59.978Z,100999.50
2023-08-04T17:11:26.530Z,100991.88
2023-08-04T17:13:52.976Z,100995.91
2023-08-04T17:16:19.863Z,100991.66
2023-08-04T17:18:46.801Z,101001.22
2023-08-04T17:21:13.147Z,101010.47
2023-08-04T17:23:39.502Z,101004.88
2023-08-04T17:26:06.548Z,101008.63
2023-08-04T17:28:33.051Z,101015.16
2023-08-04T17:31:03.438Z,101020.28
2023-08-04T17:33:31.133Z,101015.19
2023-08-04T17:35:58.410Z,101028.56
2023-08-04T17:38:24.771Z,101027.25
2023-08-04T17:41:00.736Z,101029.34
2023-08-04T17:43:27.115Z,101032.31
2023-08-04T17:45:53.669Z,101032.06
2023-08-04T17:48:20.335Z,101040.94
2023-08-04T17:50:58.890Z,101047.88
2023-08-04T17:53:25.630Z,101042.97
2023-08-04T17:55:52.443Z,101045.06
2023-08-04T17:58:19.134Z,101057.66
2023-08-04T18:00:46.000Z,101054.75
2023-08-04T18:03:13.005Z,101058.38
2023-08-04T18:05:40.485Z,101059.53
2023-08-04T18:08:08.050Z,101067.56
2023-08-04T18:10:45.332Z,101072.84
2023-08-04T18:13:12.815Z,101065.72
2023-08-04T18:15:39.369Z,101067.94
2023-08-04T18:18:06.062Z,101070.00
2023-08-04T18:20:32.665Z,101074.22
2023-08-04T18:22:59.154Z,101070.75
2023-08-04T18:25:25.982Z,101068.66
2023-08-04T18:27:52.575Z,101078.13
2023-08-04T18:30:19.105Z,101081.16
2023-08-04T18:32:45.633Z,101077.91
2023-08-04T18:35:12.702Z,101079.06
2023-08-04T18:37:39.356Z,101076.81
2023-08-04T18:40:06.862Z,101090.94
2023-08-04T18:42:36.915Z,101080.19
2023-08-04T18:45:03.766Z,101085.53
2023-08-04T18:47:30.195Z,101085.31
2023-08-04T18:49:56.631Z,101089.91
2023-08-04T18:52:22.983Z,101094.97
2023-08-04T18:54:49.350Z,101097.63
2023-08-04T18:57:15.696Z,101094.69
2023-08-04T18:59:42.080Z,101099.81
2023-08-04T19:02:08.462Z,101109.25
2023-08-04T19:04:35.032Z,101119.03
2023-08-04T19:07:01.397Z,101109.41
2023-08-04T19:09:27.859Z,101113.75
2023-08-04T19:11:54.214Z,101111.22
2023-08-04T19:14:20.637Z,101114.41
2023-08-04T19:16:47.740Z,101117.22
2023-08-04T19:19:14.447Z,101123.84
2023-08-04T19:21:40.832Z,101114.53
2023-08-04T19:24:07.173Z,101121.59
2023-08-04T19:26:33.520Z,101125.34
2023-08-04T19:29:00.266Z,101123.59
2023-08-04T19:31:26.669Z,101123.25
2023-08-04T19:33:53.078Z,101126.19
2023-08-04T19:36:19.490Z,101124.13
2023-08-04T19:38:45.870Z,101128.63
2023-08-04T19:41:12.228Z,101130.25
2023-08-04T19:43:38.574Z,101137.59
2023-08-04T19:46:05.834Z,101140.34
2023-08-04T19:48:32.578Z,101145.53
2023-08-04T19:51:00.160Z,101137.81
2023-08-04T19:53:27.334Z,101139.19
2023-08-04T19:56:08.292Z,101145.53
2023-08-04T19:58:39.908Z,101149.63
2023-08-04T20:01:09.415Z,101145.28
2023-08-04T20:03:36.263Z,101146.22
2023-08-04T20:06:02.674Z,101155.72
2023-08-04T20:08:29.064Z,101158.09
2023-08-04T20:11:08.668Z,101156.88
2023-08-04T20:13:36.134Z,101160.94
2023-08-04T20:16:13.636Z,101162.72
2023-08-04T20:18:40.496Z,101160.22
2023-08-04T20:21:07.166Z,101168.22
2023-08-04T20:23:37.050Z,101170.94
2023-08-04T20:26:04.380Z,101163.50
2023-08-04T20:28:31.311Z,101176.53
2023-08-04T20:30:59.216Z,101169.25
2023-08-04T20:33:25.623Z,101172.19
2023-08-04T20:36:03.162Z,101180.03
2023-08-04T20:38:32.395Z,101178.19
2023-08-04T20:41:08.595Z,101174.63
2023-08-04T20:43:35.348Z,101175.97
2023-08-04T20:46:01.918Z,101176.59
2023-08-04T20:48:28.935Z,101166.09
2023-08-04T20:50:55.519Z,101176.81
2023-08-04T20:53:22.315Z,101173.03
2023-08-04T20:55:56.643Z,101171.66
2023-08-04T20:58:33.653Z,101182.09
2023-08-04T21:01:04.413Z,101176.13
2023-08-04T21:03:30.984Z,101184.72
2023-08-04T21:05:57.478Z,101195.53
2023-08-04T21:08:24.148Z,101189.31
2023-08-04T21:10:52.699Z,101193.47
2023-08-04T21:13:19.636Z,101189.38
2023-08-04T21:15:48.066Z,101191.94
2023-08-04T21:18:15.788Z,101192.81
2023-08-04T21:20:48.180Z,101191.19
2023-08-04T21:23:16.495Z,101201.00
2023-08-04T21:25:43.036Z,101193.06
2023-08-04T21:28:09.600Z,101188.63
2023-08-04T21:30:36.177Z,101194.75
2023-08-04T21:33:03.399Z,101197.34
2023-08-04T21:35:30.049Z,101204.47
2023-08-04T21:37:56.389Z,101198.44
2023-08-04T21:40:22.908Z,101192.94
2023-08-04T21:42:49.529Z,101188.56
2023-08-04T21:45:15.925Z,101187.66
2023-08-04T21:47:46.423Z,101187.66
2023-08-04T21:50:12.909Z,101191.72
2023-08-04T21:52:39.518Z,101204.16
2023-08-04T21:55:06.772Z,101213.91
2023-08-04T21:57:33.116Z,101215.75
2023-08-04T21:59:59.468Z,101211.41
2023-08-04T22:02:25.916Z,101206.44
2023-08-04T22:04:52.502Z,101216.38
2023-08-04T22:07:18.855Z,101213.72
2023-08-04T22:09:48.860Z,101206.59
2023-08-04T22:12:15.608Z,101216.16
2023-08-04T22:14:41.962Z,101216.66
2023-08-04T22:17:08.394Z,101219.34
2023-08-04T22:19:34.812Z,101207.94
2023-08-04T22:22:01.222Z,101206.09
2023-08-04T22:24:27.645Z,101212.47
2023-08-04T22:26:54.022Z,101208.91
2023-08-04T22:29:20.398Z,101210.72
2023-08-04T22:31:46.748Z,101212.47
2023-08-04T22:34:13.121Z,101206.22
2023-08-04T22:36:40.092Z,101214.13
2023-08-04T22:39:06.502Z,101216.94
2023-08-04T22:41:32.857Z,101208.97
2023-08-04T22:43:59.221Z,101213.38
2023-08-04T22:46:25.627Z,101218.66
2023-08-04T22:48:52.004Z,101214.31
2023-08-04T22:51:18.456Z,101210.97
2023-08-04T22:53:44.830Z,101213.44
2023-08-04T22:56:11.219Z,101216.00
2023-08-04T22:58:37.676Z,101223.06
2023-08-04T23:01:07.284Z,101219.63
2023-08-04T23:03:33.848Z,101215.31
2023-08-04T23:06:00.405Z,101214.53
2023-08-04T23:08:29.229Z,101221.59
2023-08-04T23:10:58.928Z,101224.13
2023-08-04T23:13:26.612Z,101224.19
2023-08-04T23:15:55.757Z,101227.72
2023-08-04T23:18:26.964Z,101223.38
2023-08-04T23:20:53.337Z,101224.19
2023-08-04T23:23:20.225Z,101225.06
2023-08-04T23:25:46.984Z,101230.25
2023-08-04T23:28:14.125Z,101225.03
2023-08-04T23:30:45.093Z,101210.91
2023-08-04T23:33:15.568Z,101211.09
2023-08-04T23:35:43.533Z,101218.03
2023-08-04T23:38:10.098Z,101220.63
2023-08-04T23:40:36.527Z,101221.56
2023-08-04T23:43:02.959Z,101215.38
2023-08-04T23:45:29.352Z,101212.72
2023-08-04T23:47:55.749Z,101214.47
2023-08-04T23:50:22.207Z,101216.28
2023-08-04T23:52:48.627Z,101218.09
2023-08-04T23:55:15.001Z,101224.13
2023-08-04T23:57:41.462Z,101217.94
